createdAt,value
2018-04-18T00:04:26.322Z,83.60
2018-04-18T00:09:29.693Z,83.60
2018-04-18T00:14:32.986Z,83.10
2018-04-18T00:19:36.983Z,82.80
2018-04-18T00:24:40.290Z,82.80
2018-04-18T00:29:43.605Z,84.00
2018-04-18T00:34:47.844Z,84.10
2018-04-18T00:39:52.642Z,84.40
2018-04-18T00:44:55.905Z,84.40
2018-04-18T00:49:59.812Z,84.50
2018-04-18T00:55:03.336Z,85.00
2018-04-18T01:00:06.356Z,86.80
2018-04-18T01:05:09.567Z,86.10
2018-04-18T01:10:13.642Z,86.10
2018-04-18T01:15:17.021Z,86.10
2018-04-18T01:20:20.410Z,85.50
2018-04-18T01:25:24.115Z,85.90
2018-04-18T01:30:28.180Z,88.10
2018-04-18T01:35:31.519Z,87.30
2018-04-18T01:40:35.302Z,87.20
2018-04-18T01:45:38.679Z,87.40
2018-04-18T01:50:43.337Z,87.20
2018-04-18T01:55:47.110Z,87.20
2018-04-18T02:00:50.553Z,87.40
2018-04-18T02:05:53.595Z,87.90
2018-04-18T02:10:56.803Z,87.40
2018-04-18T02:16:00.187Z,86.30
2018-04-18T02:21:03.542Z,83.60
2018-04-18T02:26:06.761Z,83.70
2018-04-18T03:05:04.618Z,83.40
2018-04-18T03:10:10.689Z,83.80
2018-04-18T03:15:13.918Z,83.70
2018-04-18T03:20:17.468Z,83.40
2018-04-18T03:25:20.703Z,84.60
2018-04-18T03:30:24.307Z,85.30
2018-04-18T03:35:27.768Z,85.80
2018-04-18T03:40:31.050Z,86.40
2018-04-18T03:45:35.012Z,86.40
2018-04-18T03:50:38.857Z,86.30
2018-04-18T03:56:05.556Z,85.30
2018-04-18T04:01:09.378Z,85.60
2018-04-18T04:06:13.321Z,86.10
2018-04-18T04:11:16.650Z,85.60
2018-04-18T04:16:32.691Z,85.50
2018-04-18T04:21:47.679Z,85.70
2018-04-18T04:26:50.921Z,85.60
2018-04-18T04:31:54.065Z,85.60
2018-04-18T04:36:57.345Z,84.90
2018-04-18T04:42:00.796Z,85.10
2018-04-18T04:47:05.531Z,82.60
2018-04-18T04:52:09.179Z,82.60
2018-04-18T04:57:13.074Z,82.10
2018-04-18T05:02:16.328Z,82.30
2018-04-18T05:07:19.537Z,81.90
2018-04-18T05:12:24.065Z,81.70
2018-04-18T05:17:27.510Z,81.90
2018-04-18T05:22:30.823Z,80.90
2018-04-18T05:27:34.212Z,81.10
2018-04-18T05:32:37.784Z,81.20
2018-04-18T05:37:42.229Z,81.10
2018-04-18T05:42:47.776Z,80.50
2018-04-18T05:47:54.245Z,80.30
2018-04-18T05:52:58.854Z,79.70
2018-04-18T05:58:02.110Z,79.70
2018-04-18T06:03:05.369Z,79.40
2018-04-18T06:08:09.567Z,78.70
2018-04-18T06:13:14.443Z,78.70
2018-04-18T06:18:17.893Z,77.80
2018-04-18T06:23:21.439Z,76.30
2018-04-18T06:28:25.669Z,75.30
2018-04-18T06:33:29.316Z,74.10
2018-04-18T06:38:32.824Z,72.50
2018-04-18T06:43:36.191Z,71.00
2018-04-18T06:48:39.610Z,69.30
2018-04-18T06:53:43.574Z,66.50
2018-04-18T06:58:47.559Z,66.50
2018-04-18T07:03:52.253Z,65.10
2018-04-18T07:08:55.714Z,64.60
2018-04-18T07:13:59.895Z,61.80
2018-04-18T07:19:03.883Z,61.80
2018-04-18T07:24:08.333Z,61.30
2018-04-18T07:29:11.638Z,59.90
2018-04-18T07:34:16.195Z,59.20
2018-04-18T07:39:22.047Z,59.20
2018-04-18T07:44:28.302Z,59.30
2018-04-18T07:49:37.167Z,58.20
2018-04-18T07:54:40.598Z,58.00
2018-04-18T07:59:45.360Z,56.50
2018-04-18T08:04:50.698Z,56.40
2018-04-18T08:09:54.817Z,56.40
2018-04-18T08:14:58.661Z,55.00
2018-04-18T08:20:02.341Z,54.40
2018-04-18T08:25:07.018Z,51.90
2018-04-18T08:30:12.392Z,51.60
2018-04-18T08:35:17.235Z,50.50
2018-04-18T08:40:27.730Z,50.50
2018-04-18T08:45:34.436Z,50.20
2018-04-18T08:50:39.987Z,50.10
2018-04-18T08:55:42.964Z,50.00
2018-04-18T09:00:48.303Z,50.50
2018-04-18T09:06:03.238Z,50.40
2018-04-18T09:11:14.066Z,50.10
2018-04-18T09:21:54.346Z,50.20
2018-04-18T09:27:08.845Z,49.90
2018-04-18T09:32:16.595Z,49.00
2018-04-18T09:37:24.145Z,49.00
2018-04-18T09:42:28.656Z,48.00
2018-04-18T09:47:55.525Z,48.00
2018-04-18T09:52:59.896Z,48.00
2018-04-18T09:58:03.915Z,47.40
2018-04-18T10:03:08.541Z,47.10
2018-04-18T10:08:13.122Z,47.40
2018-04-18T10:13:16.574Z,46.10
2018-04-18T10:18:23.621Z,45.90
2018-04-18T10:23:27.025Z,46.10
2018-04-18T10:28:31.229Z,45.80
2018-04-18T10:33:34.677Z,45.60
2018-04-18T10:38:38.135Z,44.90
2018-04-18T10:43:41.632Z,44.70
2018-04-18T10:53:56.383Z,43.40
2018-04-18T10:58:59.885Z,42.90
2018-04-18T11:04:04.010Z,41.80
2018-04-18T11:09:08.724Z,41.80
2018-04-18T11:14:15.289Z,42.00
2018-04-18T11:19:19.102Z,41.60
2018-04-18T11:24:23.492Z,40.40
2018-04-18T11:29:26.784Z,39.50
2018-04-18T11:34:30.129Z,39.80
2018-04-18T11:39:34.790Z,39.90
2018-04-18T11:44:40.555Z,39.90
2018-04-18T11:49:44.099Z,39.20
2018-04-18T11:54:47.568Z,39.20
2018-04-18T12:07:52.005Z,36.80
2018-04-18T12:18:08.118Z,36.80
2018-04-18T12:23:11.462Z,37.40
2018-04-18T12:28:17.403Z,36.50
2018-04-18T12:38:55.500Z,37.10
2018-04-18T12:44:03.088Z,37.10
2018-04-18T12:49:11.233Z,37.10
2018-04-18T12:54:30.003Z,37.00
2018-04-18T13:04:52.485Z,36.40
2018-04-18T13:09:57.080Z,36.80
2018-04-18T13:15:02.612Z,36.10
2018-04-18T13:20:12.898Z,35.90
2018-04-18T13:25:23.530Z,35.70
2018-04-18T13:30:31.586Z,35.50
2018-04-18T13:35:36.330Z,35.70
2018-04-18T13:40:40.051Z,36.00
2018-04-18T13:45:43.380Z,35.90
2018-04-18T13:50:47.816Z,35.40
2018-04-18T13:55:51.022Z,35.60
2018-04-18T14:00:55.817Z,35.40
2018-04-18T14:05:59.727Z,35.60
2018-04-18T14:11:03.548Z,34.70
2018-04-18T14:16:07.349Z,34.70
2018-04-18T14:21:11.083Z,35.10
2018-04-18T14:26:14.408Z,34.60
2018-04-18T14:31:18.441Z,34.70
2018-04-18T14:36:26.557Z,33.90
2018-04-18T14:41:29.876Z,33.90
2018-04-18T14:46:35.338Z,33.30
2018-04-18T14:51:41.109Z,31.60
2018-04-18T14:56:44.921Z,31.60
2018-04-18T15:01:48.072Z,31.00
2018-04-18T15:06:52.505Z,31.00
2018-04-18T15:11:55.739Z,31.80
2018-04-18T15:16:58.893Z,31.70
2018-04-18T15:22:03.938Z,31.80
2018-04-18T15:27:12.170Z,31.80
2018-04-18T15:32:15.442Z,31.50
2018-04-18T15:37:18.870Z,31.20
2018-04-18T15:42:29.220Z,31.60
2018-04-18T15:47:32.489Z,31.00
2018-04-18T15:52:36.525Z,29.90
2018-04-18T15:57:39.863Z,29.90
2018-04-18T16:02:43.907Z,29.20
2018-04-18T16:07:47.194Z,29.20
2018-04-18T16:12:52.023Z,29.20
2018-04-18T16:17:56.107Z,29.90
2018-04-18T16:22:59.424Z,30.40
2018-04-18T16:28:02.829Z,30.30
2018-04-18T16:33:07.913Z,31.00
2018-04-18T16:38:12.302Z,30.90
2018-04-18T16:43:15.540Z,31.10
2018-04-18T16:48:18.905Z,30.20
2018-04-18T16:53:23.273Z,29.80
2018-04-18T16:58:27.485Z,29.80
2018-04-18T17:03:30.786Z,30.50
2018-04-18T17:08:36.525Z,31.30
2018-04-18T17:13:39.755Z,34.30
2018-04-18T17:18:42.999Z,35.30
2018-04-18T17:23:46.329Z,36.10
2018-04-18T17:28:49.580Z,36.40
2018-04-18T17:33:53.583Z,37.10
2018-04-18T17:38:56.850Z,37.40
2018-04-18T17:44:00.971Z,37.70
2018-04-18T17:49:04.239Z,37.80
2018-04-18T17:54:08.053Z,39.00
2018-04-18T17:59:12.199Z,39.70
2018-04-18T18:04:15.929Z,39.40
2018-04-18T18:09:19.580Z,39.60
2018-04-18T18:14:23.609Z,39.90
2018-04-18T18:19:28.372Z,40.30
2018-04-18T18:24:31.641Z,40.40
2018-04-18T18:29:34.939Z,40.90
2018-04-18T18:34:45.676Z,41.20
2018-04-18T18:39:57.044Z,42.10
2018-04-18T18:45:03.105Z,42.50
2018-04-18T18:50:06.591Z,42.70
2018-04-18T18:55:09.615Z,43.20
2018-04-18T19:00:15.943Z,43.50
2018-04-18T19:05:19.338Z,44.10
2018-04-18T19:10:23.451Z,45.10
2018-04-18T19:15:26.779Z,45.10
2018-04-18T19:20:30.012Z,45.40
2018-04-18T19:25:33.402Z,45.70
2018-04-18T19:30:37.646Z,46.70
2018-04-18T19:35:41.717Z,47.30
2018-04-18T19:40:44.971Z,48.60
2018-04-18T19:45:48.333Z,48.70
2018-04-18T19:50:51.989Z,48.40
2018-04-18T19:55:56.253Z,49.00
2018-04-18T20:00:59.610Z,48.80
2018-04-18T20:06:02.986Z,48.60
2018-04-18T20:16:26.392Z,48.50
2018-04-18T20:21:30.542Z,49.40
2018-04-18T20:26:33.827Z,48.80
2018-04-18T20:37:11.125Z,50.00
2018-04-18T20:42:14.341Z,50.90
2018-04-18T20:47:17.642Z,52.10
2018-04-18T20:52:21.562Z,54.30
2018-04-18T20:57:26.735Z,55.80
2018-04-18T21:02:30.571Z,55.80
2018-04-18T21:07:35.061Z,57.50
2018-04-18T21:12:38.329Z,57.40
2018-04-18T21:17:41.544Z,58.50
2018-04-18T21:22:44.790Z,59.80
2018-04-18T21:27:48.054Z,59.40
2018-04-18T21:32:51.329Z,59.60
2018-04-18T21:37:55.490Z,60.90
2018-04-18T21:42:58.798Z,61.40
2018-04-18T21:48:02.437Z,62.50
2018-04-18T21:53:05.689Z,63.20
2018-04-18T21:58:09.642Z,64.50
2018-04-18T22:03:12.677Z,65.60
2018-04-18T22:08:15.931Z,65.70
2018-04-18T22:13:20.713Z,66.10
2018-04-18T22:18:24.388Z,66.30
2018-04-18T22:23:28.372Z,67.40
2018-04-18T22:28:31.597Z,67.30
2018-04-18T22:33:34.884Z,68.00
2018-04-18T22:38:38.009Z,68.90
2018-04-18T22:43:41.230Z,69.60
2018-04-18T22:48:44.543Z,70.50
2018-04-18T22:53:47.692Z,70.60
2018-04-18T22:58:51.015Z,71.20
2018-04-18T23:03:54.256Z,70.80
2018-04-18T23:08:57.556Z,70.10
2018-04-18T23:14:00.814Z,69.40
2018-04-18T23:19:04.123Z,69.00
2018-04-18T23:24:07.311Z,68.90
2018-04-18T23:29:11.252Z,68.50
2018-04-18T23:34:14.539Z,68.30
2018-04-18T23:39:18.018Z,69.40
2018-04-18T23:44:21.504Z,72.40
2018-04-18T23:49:25.836Z,73.40
2018-04-18T23:54:28.828Z,71.40
2018-04-18T23:59:32.151Z,68.90
